Aérodrome :
LOGIN :

S'inscrire | Disclaimer

   EN    FR    IT 

 










Légende :    VFR   VFR Marginal   IFR   IFR Intensif   IFR Très Intensif
Visi : 
Plafond : 
>= 8 km
>= 3000ft
5 à 8 km
1000 à 3000 ft
1500m à 5 km
500 à 1000 ft
800 à 1500m
200 à 500 ft
< 800m
< 200 ft
Symboles :   Orages  Brouillard  Fortes neiges  Fortes précipitations  Vent > 20 kt
SIGMETs :   Divers  Orages  Givrage  Turbulence  Onde Orograph.  Cendres Volcan.







- Altitude de l'aérodrome : 187 ft


ETNW - Wunstorf AB

DERNIER METAR :
  • 250620Z 25011KT 9999 FEW012 BKN019 BKN050 06/04 Q1003 WHT BLU TEMPO GRN

METARs EXPIRÉS :
  • 250520Z 22008KT 9999 FEW012 BKN028 BKN070 05/03 Q1003 BLU BLU TEMPO GRN
  • 250420Z 23006KT 9999 -RA FEW007 BKN025 BKN045 05/03 Q1003 BLU BLU TEMPO GRN
  • 250337Z 22004KT 9999 -RA FEW007 SCT020 BKN045 05/04 Q1003 BLU

TAF COR TAF ETNW
Valide du 25 à 05h jusqu'au 26 à 05h UTC


250450Z 2505/2605 25010KT 9999 NSW SCT020 BKN050
TEMPO 2505/2509 27005KT 8000 NSW BKN012 BKN020
TEMPO 2509/2517 28020G30KT 5000 -SHRA BKN015 BKN020TCU BY ETGL
Pas de NOTAMs connus pour ce terrain.



MET'MAP, la Météo Aéronautique d'un coup d'oeil ! - Copyright ORBIFLY Décembre 2007 - Disclaimer

ORBIFLY MET'MAP TEAM :

Programmation & Développement : Alexandra Zaïnal
Conception & Développement : Baudouin d'Aumeries
Co-Programmation & Développement : Marc-Olivier Méhu
Soutien technique & logistique : Manuel Goepfert

Contact : metmap@orbifly.com




SOURCES & CREDITS :

   NOAA